Time;durP1;ratioP1;P1;durP2;ratioP2;P2;SDS_P1;SDS_P2;PMS_P1;PMS_P2;Temp;Humidity;BMP_temperature;BMP_pressure;BME280_temperature;BME280_humidity;BME280_pressure;Samples;Min_cycle;Max_cycle;Signal;HPM_P1;HPM_P2
2024/02/08 00:01:54;;;;;;;0.30;0.22;;;;;;;;;;5009420;28;20433;-87
2024/02/08 00:04:20;;;;;;;0.20;0.10;;;;;;;;;;5013564;28;20549;-87
2024/02/08 00:06:54;;;;;;;0.20;0.10;;;;;;;;;;5008772;28;20132;-87
2024/02/08 00:09:28;;;;;;;0.20;0.10;;;;;;;;;;5010249;28;20045;-87
2024/02/08 00:12:04;;;;;;;0.20;0.10;;;;;;;;;;5011953;28;20140;-87
2024/02/08 00:14:40;;;;;;;0.20;0.00;;;;;;;;;;5011034;28;20061;-87
2024/02/08 00:17:10;;;;;;;0.20;0.10;;;;;;;;;;5005204;28;20133;-87
2024/02/08 00:19:56;;;;;;;0.20;0.05;;;;;;;;;;5015312;28;20038;-87
2024/02/08 00:22:30;;;;;;;0.20;0.00;;;;;;;;;;5014883;28;20048;-87
2024/02/08 00:25:04;;;;;;;0.20;0.10;;;;;;;;;;5011401;28;20033;-87
2024/02/08 00:27:48;;;;;;;0.20;0.08;;;;;;;;;;5015709;28;20347;-87
2024/02/08 00:30:29;;;;;;;0.20;0.10;;;;;;;;;;5008580;28;20109;-87
2024/02/08 00:33:00;;;;;;;0.20;0.10;;;;;;;;;;5011648;28;20046;-87
2024/02/08 00:35:49;;;;;;;0.20;0.00;;;;;;;;;;5030628;28;20053;-87
2024/02/08 00:38:18;;;;;;;0.20;0.00;;;;;;;;;;5023387;28;20049;-87
2024/02/08 00:40:53;;;;;;;0.30;0.20;;;;;;;;;;5003334;28;20045;-87
2024/02/08 00:43:28;;;;;;;0.20;0.10;;;;;;;;;;5010894;28;20514;-87
2024/02/08 00:46:06;;;;;;;0.20;0.10;;;;;;;;;;5007084;28;20057;-87
2024/02/08 00:48:46;;;;;;;0.20;0.00;;;;;;;;;;5011034;28;20037;-87
2024/02/08 00:51:30;;;;;;;;;;;;;;;;;;;;;
2024/02/08 00:54:05;;;;;;;0.20;0.10;;;;;;;;;;5022524;28;20051;-87
2024/02/08 00:56:42;;;;;;;0.20;0.10;;;;;;;;;;5011053;28;20041;-87
2024/02/08 00:59:40;;;;;;;0.20;0.10;;;;;;;;;;5013462;28;20728;-86
2024/02/08 01:02:29;;;;;;;0.20;0.10;;;;;;;;;;5015477;28;20077;-87
2024/02/08 01:05:02;;;;;;;0.20;0.10;;;;;;;;;;5008485;28;20084;-87
2024/02/08 01:08:08;;;;;;;0.20;0.10;;;;;;;;;;4990882;28;20074;-87
2024/02/08 01:10:58;;;;;;;0.20;0.10;;;;;;;;;;5011005;28;20243;-87
2024/02/08 01:13:53;;;;;;;0.20;0.10;;;;;;;;;;5018018;28;20569;-87
2024/02/08 01:16:34;;;;;;;0.20;0.10;;;;;;;;;;5006280;28;20046;-88
2024/02/08 01:19:04;;;;;;;0.30;0.20;;;;;;;;;;5021466;28;20030;-87
2024/02/08 01:21:53;;;;;;;;;;;;;;;;;;;;;
2024/02/08 01:24:29;;;;;;;0.20;0.10;;;;;;;;;;5025149;28;20510;-87
2024/02/08 01:27:06;;;;;;;0.20;0.10;;;;;;;;;;5012759;28;20128;-87
2024/02/08 01:29:46;;;;;;;1.55;1.45;;;;;;;;;;5014752;28;20054;-86
2024/02/08 01:32:34;;;;;;;0.20;0.10;;;;;;;;;;5018957;28;20124;-87
2024/02/08 01:35:21;;;;;;;0.22;0.20;;;;;;;;;;5030959;28;20049;-86
2024/02/08 01:37:51;;;;;;;0.20;0.00;;;;;;;;;;5015533;28;20111;-87
2024/02/08 01:40:31;;;;;;;0.20;0.10;;;;;;;;;;5026639;28;20037;-87
2024/02/08 01:43:05;;;;;;;0.20;0.00;;;;;;;;;;5012349;28;20052;-87
2024/02/08 01:45:50;;;;;;;0.20;0.05;;;;;;;;;;5012393;28;20034;-87
2024/02/08 01:48:31;;;;;;;;;;;;;;;;;;;;;
2024/02/08 01:51:12;;;;;;;0.77;0.30;;;;;;;;;;5030034;28;20081;-87
2024/02/08 01:53:43;;;;;;;0.20;0.10;;;;;;;;;;5025015;28;20084;-87
2024/02/08 01:56:25;;;;;;;0.20;0.10;;;;;;;;;;5015177;28;20049;-87
2024/02/08 01:59:00;;;;;;;0.20;0.20;;;;;;;;;;5014978;28;20061;-87
2024/02/08 02:01:45;;;;;;;0.20;0.10;;;;;;;;;;5009618;28;20038;-87
2024/02/08 02:04:15;;;;;;;0.20;0.10;;;;;;;;;;5028271;28;20378;-88
2024/02/08 02:07:11;;;;;;;0.20;0.10;;;;;;;;;;5015656;28;20038;-87
2024/02/08 02:09:51;;;;;;;0.20;0.10;;;;;;;;;;5009322;28;20203;-88
2024/02/08 02:12:42;;;;;;;0.20;0.10;;;;;;;;;;5011229;28;20137;-87
2024/02/08 02:15:13;;;;;;;0.20;0.10;;;;;;;;;;5014367;28;20038;-87
2024/02/08 03:49:49;;;;;;;0.20;0.10;;;;;;;;;;5018745;28;20116;-86
2024/02/08 03:52:37;;;;;;;0.20;0.10;;;;;;;;;;4991668;28;20138;-86
2024/02/08 03:55:26;;;;;;;0.20;0.10;;;;;;;;;;5000222;28;20054;-86
2024/02/08 03:58:06;;;;;;;0.20;0.10;;;;;;;;;;4996962;28;20045;-87
2024/02/08 04:00:35;;;;;;;0.20;0.05;;;;;;;;;;5023977;23;20850;-83
2024/02/08 04:03:10;;;;;;;0.20;0.00;;;;;;;;;;4982007;28;20046;-83
2024/02/08 04:05:37;;;;;;;0.20;0.00;;;;;;;;;;5016700;28;20044;-83
2024/02/08 04:54:33;;;;;;;0.20;0.10;;;;;;;;;;4997207;28;20155;-83
2024/02/08 04:57:03;;;;;;;0.20;0.10;;;;;;;;;;4988428;28;20062;-83
2024/02/08 04:59:29;;;;;;;0.45;0.38;;;;;;;;;;4982566;28;20494;-83
2024/02/08 05:01:55;;;;;;;0.20;0.10;;;;;;;;;;4981080;28;20030;-83
2024/02/08 05:04:21;;;;;;;0.80;0.65;;;;;;;;;;4981955;28;20106;-83
2024/02/08 05:06:47;;;;;;;0.20;0.10;;;;;;;;;;4985450;28;20042;-83
2024/02/08 05:09:19;;;;;;;0.20;0.10;;;;;;;;;;4984775;28;20436;-83
2024/02/08 05:11:47;;;;;;;0.20;0.10;;;;;;;;;;5001685;28;20045;-83
2024/02/08 05:14:13;;;;;;;0.20;0.10;;;;;;;;;;4987030;28;20057;-83
2024/02/08 05:16:39;;;;;;;0.20;0.00;;;;;;;;;;4982926;28;20046;-83
2024/02/08 05:19:07;;;;;;;0.20;0.10;;;;;;;;;;4982659;28;20092;-83
2024/02/08 05:21:34;;;;;;;0.20;0.00;;;;;;;;;;4982345;28;20659;-83
2024/02/08 05:24:03;;;;;;;0.20;0.10;;;;;;;;;;4985123;28;20642;-82
2024/02/08 05:26:31;;;;;;;0.20;0.10;;;;;;;;;;4997741;28;20502;-84
2024/02/08 05:28:58;;;;;;;0.20;0.10;;;;;;;;;;5002105;28;20499;-82
2024/02/08 05:31:27;;;;;;;0.20;0.00;;;;;;;;;;4981883;28;20053;-82
2024/02/08 05:33:57;;;;;;;0.20;0.10;;;;;;;;;;4982081;28;20479;-83
2024/02/08 05:36:24;;;;;;;0.20;0.10;;;;;;;;;;4991351;28;20071;-82
2024/02/08 05:38:56;;;;;;;0.20;0.00;;;;;;;;;;4999629;28;20046;-83
2024/02/08 05:41:22;;;;;;;0.20;0.15;;;;;;;;;;4991744;28;20048;-83
2024/02/08 05:43:51;;;;;;;0.20;0.10;;;;;;;;;;4983402;28;20049;-83
2024/02/08 05:46:24;;;;;;;0.20;0.00;;;;;;;;;;4982276;28;20125;-83
2024/02/08 05:48:51;;;;;;;0.20;0.05;;;;;;;;;;4985442;28;20050;-82
2024/02/08 05:51:20;;;;;;;0.25;0.15;;;;;;;;;;4982665;28;20057;-83
2024/02/08 05:53:47;;;;;;;0.20;0.10;;;;;;;;;;4981675;28;20072;-82
2024/02/08 05:56:15;;;;;;;0.20;0.10;;;;;;;;;;4993772;28;20769;-83
2024/02/08 05:58:44;;;;;;;0.20;0.10;;;;;;;;;;4985156;28;21116;-83
2024/02/08 06:01:16;;;;;;;0.20;0.10;;;;;;;;;;4987405;28;20144;-83
2024/02/08 06:03:44;;;;;;;1.10;0.95;;;;;;;;;;4981087;28;20136;-83
2024/02/08 06:06:17;;;;;;;0.20;0.05;;;;;;;;;;4999522;28;20046;-82
2024/02/08 06:08:43;;;;;;;0.20;0.10;;;;;;;;;;4992558;28;20530;-83
2024/02/08 06:11:19;;;;;;;0.20;0.10;;;;;;;;;;4985010;28;20128;-83
2024/02/08 06:14:06;;;;;;;0.20;0.10;;;;;;;;;;5006129;28;20042;-84
2024/02/08 06:16:45;;;;;;;0.20;0.10;;;;;;;;;;5006204;28;20077;-83
2024/02/08 06:19:14;;;;;;;0.20;0.10;;;;;;;;;;4992021;28;20096;-84
2024/02/08 06:21:40;;;;;;;0.20;0.10;;;;;;;;;;5003716;28;20182;-84
2024/02/08 06:26:55;;;;;;;0.20;0.08;;;;;;;;;;4998349;28;20069;-83
2024/02/08 06:29:26;;;;;;;0.20;0.00;;;;;;;;;;4982557;28;20050;-83
2024/02/08 06:32:02;;;;;;;0.20;0.10;;;;;;;;;;5007326;28;20049;-83
2024/02/08 06:34:42;;;;;;;0.20;0.00;;;;;;;;;;5000305;28;20045;-83
2024/02/08 06:37:25;;;;;;;0.20;0.10;;;;;;;;;;4987931;28;20114;-83
2024/02/08 06:39:55;;;;;;;0.20;0.10;;;;;;;;;;5002352;28;20514;-83
2024/02/08 06:45:25;;;;;;;0.20;0.10;;;;;;;;;;4995671;28;20510;-83
2024/02/08 06:47:56;;;;;;;0.20;0.10;;;;;;;;;;4985358;28;20041;-84
2024/02/08 07:37:59;;;;;;;0.20;0.03;;;;;;;;;;5007367;28;20252;-84
2024/02/08 07:40:26;;;;;;;0.20;0.10;;;;;;;;;;4993733;28;20540;-84
2024/02/08 07:42:52;;;;;;;0.20;0.10;;;;;;;;;;4984737;28;20578;-84
2024/02/08 07:45:26;;;;;;;0.20;0.05;;;;;;;;;;5000849;28;21219;-84
2024/02/08 07:48:08;;;;;;;0.20;0.10;;;;;;;;;;4985200;28;20406;-83
2024/02/08 07:50:35;;;;;;;0.20;0.10;;;;;;;;;;4986125;28;20056;-83
2024/02/08 07:53:08;;;;;;;0.20;0.10;;;;;;;;;;4983617;28;20045;-83
2024/02/08 07:58:07;;;;;;;0.20;0.10;;;;;;;;;;4997485;28;20046;-84
2024/02/08 08:03:15;;;;;;;0.20;0.10;;;;;;;;;;4999981;28;19918;-83
2024/02/08 08:05:43;;;;;;;0.20;0.10;;;;;;;;;;4996630;28;20054;-83
2024/02/08 08:08:32;;;;;;;0.20;0.10;;;;;;;;;;5000215;28;20040;-83
2024/02/08 08:11:02;;;;;;;0.20;0.10;;;;;;;;;;4983983;28;20423;-84
2024/02/08 08:18:58;;;;;;;0.20;0.10;;;;;;;;;;5000671;28;20046;-84
2024/02/08 08:21:30;;;;;;;0.20;0.10;;;;;;;;;;4985266;28;20120;-84
2024/02/08 08:24:02;;;;;;;0.20;0.10;;;;;;;;;;4986001;28;20451;-84
2024/02/08 08:26:39;;;;;;;0.20;0.00;;;;;;;;;;4998783;28;20046;-84
2024/02/08 08:29:13;;;;;;;0.20;0.10;;;;;;;;;;4985674;28;20482;-84
2024/02/08 08:31:51;;;;;;;0.20;0.10;;;;;;;;;;4993500;28;20171;-84
2024/02/08 08:37:02;;;;;;;0.20;0.10;;;;;;;;;;5000190;28;20033;-84
2024/02/08 08:40:00;;;;;;;0.20;0.10;;;;;;;;;;4997906;28;20037;-84
2024/02/08 08:42:28;;;;;;;0.20;0.10;;;;;;;;;;5000380;28;20179;-83
2024/02/08 08:44:59;;;;;;;0.20;0.10;;;;;;;;;;4991541;28;20038;-84
2024/02/08 08:47:27;;;;;;;0.20;0.10;;;;;;;;;;4989043;28;20121;-84
2024/02/08 08:50:17;;;;;;;0.20;0.10;;;;;;;;;;5000282;28;20041;-84
2024/02/08 08:52:57;;;;;;;0.20;0.10;;;;;;;;;;4990849;28;20128;-83
2024/02/08 08:55:23;;;;;;;0.20;0.10;;;;;;;;;;4990109;28;20428;-84
2024/02/08 08:58:00;;;;;;;0.20;0.10;;;;;;;;;;4990587;28;20041;-84
2024/02/08 09:00:35;;;;;;;0.20;0.10;;;;;;;;;;5003087;28;20112;-84
2024/02/08 09:03:04;;;;;;;0.20;0.10;;;;;;;;;;5000755;28;20042;-84
2024/02/08 09:05:31;;;;;;;0.20;0.10;;;;;;;;;;5006567;28;20053;-83
2024/02/08 09:08:08;;;;;;;0.20;0.10;;;;;;;;;;4985717;28;20037;-84
2024/02/08 09:10:34;;;;;;;0.20;0.10;;;;;;;;;;5005820;28;20134;-84
2024/02/08 09:13:06;;;;;;;0.20;0.00;;;;;;;;;;4989019;28;20498;-85
2024/02/08 09:15:47;;;;;;;0.20;0.10;;;;;;;;;;4985514;28;20427;-84
2024/02/08 09:18:15;;;;;;;0.20;0.10;;;;;;;;;;4990514;28;20073;-85
2024/02/08 09:20:41;;;;;;;0.20;0.10;;;;;;;;;;4990189;28;20042;-85
2024/02/08 09:23:15;;;;;;;0.20;0.10;;;;;;;;;;4993033;28;20042;-85
2024/02/08 09:25:45;;;;;;;0.20;0.10;;;;;;;;;;4989773;28;20038;-84
2024/02/08 09:28:35;;;;;;;0.20;0.00;;;;;;;;;;4993151;28;20465;-85
2024/02/08 09:31:13;;;;;;;0.20;0.10;;;;;;;;;;4992282;28;20045;-85
2024/02/08 09:33:45;;;;;;;0.20;0.10;;;;;;;;;;5003274;28;20041;-83
2024/02/08 09:36:14;;;;;;;0.20;0.10;;;;;;;;;;4989517;28;20586;-85
2024/02/08 09:38:44;;;;;;;0.20;0.10;;;;;;;;;;4987592;28;20050;-85
2024/02/08 09:41:23;;;;;;;0.20;0.00;;;;;;;;;;4989924;28;20576;-85
2024/02/08 09:43:56;;;;;;;0.20;0.05;;;;;;;;;;4991497;28;20327;-85
2024/02/08 09:46:49;;;;;;;;;;;;;;;;;;4991425;28;20050;-85
2024/02/08 09:49:17;;;;;;;0.20;0.10;;;;;;;;;;4996226;28;20013;-85
2024/02/08 09:51:52;;;;;;;0.20;0.10;;;;;;;;;;5000546;28;20048;-84
2024/02/08 09:54:28;;;;;;;3.10;1.23;;;;;;;;;;4988868;28;20620;-85
2024/02/08 09:57:23;;;;;;;0.20;0.10;;;;;;;;;;5000706;28;20092;-85
2024/02/08 09:59:59;;;;;;;0.20;0.10;;;;;;;;;;4985982;28;20080;-85
2024/02/08 10:02:32;;;;;;;0.20;0.10;;;;;;;;;;5018346;23;20053;-86
2024/02/08 10:04:59;;;;;;;0.20;0.10;;;;;;;;;;5004854;28;20060;-87
2024/02/08 10:07:37;;;;;;;0.20;0.10;;;;;;;;;;5025079;28;20091;-87
2024/02/08 10:10:17;;;;;;;1.38;0.75;;;;;;;;;;5006921;28;20044;-86
2024/02/08 10:13:04;;;;;;;0.20;0.10;;;;;;;;;;4985256;28;20569;-87
2024/02/08 10:15:45;;;;;;;0.20;0.10;;;;;;;;;;4990372;28;20030;-88
2024/02/08 10:18:23;;;;;;;0.20;0.10;;;;;;;;;;5002382;28;20029;-87
2024/02/08 10:20:58;;;;;;;0.25;0.15;;;;;;;;;;5003156;28;20513;-87
2024/02/08 10:23:48;;;;;;;0.20;0.00;;;;;;;;;;4994836;28;20042;-89
2024/02/08 10:26:19;;;;;;;0.20;0.10;;;;;;;;;;5000997;28;20050;-86
2024/02/08 10:28:53;;;;;;;0.20;0.10;;;;;;;;;;4987147;28;20041;-88
2024/02/08 10:31:23;;;;;;;0.20;0.10;;;;;;;;;;4991415;28;20092;-88
2024/02/08 10:33:57;;;;;;;0.20;0.10;;;;;;;;;;5005075;28;20042;-87
2024/02/08 10:36:31;;;;;;;0.20;0.10;;;;;;;;;;5005720;28;20469;-88
2024/02/08 10:39:07;;;;;;;0.20;0.10;;;;;;;;;;4990024;28;20100;-88
2024/02/08 10:41:57;;;;;;;0.20;0.10;;;;;;;;;;4987360;28;20478;-88
2024/02/08 10:44:32;;;;;;;0.20;0.10;;;;;;;;;;5017330;28;20038;-88
2024/02/08 10:47:09;;;;;;;0.20;0.10;;;;;;;;;;4989839;28;20065;-88
2024/02/08 10:49:51;;;;;;;0.20;0.00;;;;;;;;;;5003262;28;20038;-88
2024/02/08 10:52:20;;;;;;;0.20;0.00;;;;;;;;;;4990797;28;20324;-88
2024/02/08 10:54:51;;;;;;;0.20;0.10;;;;;;;;;;4990366;28;20038;-88
2024/02/08 10:57:39;;;;;;;0.20;0.10;;;;;;;;;;4989322;28;20529;-88
2024/02/08 11:00:49;;;;;;;1.05;0.38;;;;;;;;;;4988709;28;20034;-89
2024/02/08 11:03:00;;;;;;;0.20;0.00;;;;;;;;;;5004711;28;20042;-88
2024/02/08 11:09:09;;;;;;;0.20;0.10;;;;;;;;;;5002461;28;20419;-89
2024/02/08 11:11:20;;;;;;;0.20;0.00;;;;;;;;;;4997654;28;20521;-90
2024/02/08 11:13:59;;;;;;;0.20;0.00;;;;;;;;;;5000815;28;20046;-88
2024/02/08 11:16:47;;;;;;;0.20;0.10;;;;;;;;;;4997002;28;20057;-90
2024/02/08 11:19:19;;;;;;;0.20;0.10;;;;;;;;;;4985983;28;20044;-88
2024/02/08 11:24:59;;;;;;;0.20;0.00;;;;;;;;;;5001536;28;20046;-88
2024/02/08 11:27:38;;;;;;;0.20;0.10;;;;;;;;;;5004919;28;20038;-88
2024/02/08 11:30:19;;;;;;;0.20;0.10;;;;;;;;;;4991569;28;20216;-89
2024/02/08 11:32:56;;;;;;;0.20;0.00;;;;;;;;;;5004519;28;20033;-89
2024/02/08 11:35:30;;;;;;;0.20;0.10;;;;;;;;;;4990817;28;20042;-89
2024/02/08 11:38:27;;;;;;;0.20;0.10;;;;;;;;;;4988481;28;20490;-90
2024/02/08 11:40:57;;;;;;;0.20;0.10;;;;;;;;;;4989107;28;20733;-87
2024/02/08 11:43:48;;;;;;;0.20;0.00;;;;;;;;;;5001289;28;20044;-89
2024/02/08 11:47:17;;;;;;;0.20;0.10;;;;;;;;;;4993881;28;20121;-92
2024/02/08 11:50:36;;;;;;;0.20;0.00;;;;;;;;;;5004687;28;20537;-90
2024/02/08 11:53:36;;;;;;;0.20;0.00;;;;;;;;;;4993591;28;20057;-90
2024/02/08 11:56:15;;;;;;;0.20;0.10;;;;;;;;;;4992801;28;20045;-88
2024/02/08 11:59:05;;;;;;;0.20;0.00;;;;;;;;;;4984950;28;20136;-90
2024/02/08 12:04:24;;;;;;;0.20;0.10;;;;;;;;;;5065726;22;20125;-89
2024/02/08 12:07:21;;;;;;;0.20;0.10;;;;;;;;;;5006830;28;20049;-90
2024/02/08 12:10:00;;;;;;;0.20;0.00;;;;;;;;;;5023748;28;20044;-90
2024/02/08 12:12:45;;;;;;;0.20;0.10;;;;;;;;;;5010746;28;20521;-90
2024/02/08 12:15:12;;;;;;;0.20;0.10;;;;;;;;;;5087898;22;20318;-85
2024/02/08 12:17:48;;;;;;;0.20;0.00;;;;;;;;;;5040786;28;20040;-82
2024/02/08 12:20:17;;;;;;;0.20;0.00;;;;;;;;;;5041387;28;20044;-81
2024/02/08 12:22:43;;;;;;;0.20;0.10;;;;;;;;;;5077995;28;20036;-83
2024/02/08 12:25:15;;;;;;;0.28;0.22;;;;;;;;;;5053928;28;20089;-83
2024/02/08 12:27:48;;;;;;;0.20;0.03;;;;;;;;;;5067424;28;20408;-83
2024/02/08 12:30:16;;;;;;;0.50;0.20;;;;;;;;;;5082101;28;20059;-83
2024/02/08 12:32:43;;;;;;;0.20;0.10;;;;;;;;;;5064974;28;20044;-83
2024/02/08 12:35:12;;;;;;;0.20;0.10;;;;;;;;;;5087477;28;20036;-83
2024/02/08 12:37:41;;;;;;;0.20;0.10;;;;;;;;;;5069719;28;20040;-83
2024/02/08 12:40:12;;;;;;;0.20;0.10;;;;;;;;;;5075234;28;20088;-82
2024/02/08 12:42:39;;;;;;;0.20;0.00;;;;;;;;;;5085325;28;20147;-82
2024/02/08 12:45:10;;;;;;;0.20;0.10;;;;;;;;;;5072360;28;20035;-82
2024/02/08 12:47:38;;;;;;;0.20;0.10;;;;;;;;;;5086852;28;20084;-82
2024/02/08 12:50:08;;;;;;;0.20;0.10;;;;;;;;;;5104865;28;20046;-83
2024/02/08 12:52:34;;;;;;;0.20;0.10;;;;;;;;;;5091752;28;20051;-82
2024/02/08 12:55:00;;;;;;;0.20;0.10;;;;;;;;;;5098387;28;20028;-82
2024/02/08 12:57:27;;;;;;;0.20;0.10;;;;;;;;;;5068973;28;20031;-83
2024/02/08 13:00:08;;;;;;;0.20;0.10;;;;;;;;;;5087354;28;20080;-82
2024/02/08 13:02:34;;;;;;;0.20;0.10;;;;;;;;;;5084397;28;20039;-82
2024/02/08 13:05:03;;;;;;;0.20;0.10;;;;;;;;;;5084102;28;20118;-83
2024/02/08 13:07:29;;;;;;;0.20;0.05;;;;;;;;;;5083288;28;20098;-83
2024/02/08 13:10:14;;;;;;;0.20;0.10;;;;;;;;;;5084636;28;20032;-83
2024/02/08 13:12:40;;;;;;;0.20;0.10;;;;;;;;;;5069725;28;20051;-82
2024/02/08 13:15:07;;;;;;;0.20;0.10;;;;;;;;;;5062005;28;20036;-82
2024/02/08 13:17:34;;;;;;;0.20;0.00;;;;;;;;;;5103452;28;20099;-82
2024/02/08 13:20:11;;;;;;;0.20;0.10;;;;;;;;;;5078921;28;20066;-83
2024/02/08 13:22:37;;;;;;;0.20;0.10;;;;;;;;;;5086800;28;20056;-82
2024/02/08 13:25:11;;;;;;;0.20;0.10;;;;;;;;;;5070199;28;20105;-82
2024/02/08 13:27:38;;;;;;;0.20;0.00;;;;;;;;;;5063094;28;20065;-83
2024/02/08 13:30:26;;;;;;;0.20;0.10;;;;;;;;;;5083427;28;20051;-83
2024/02/08 13:32:51;;;;;;;0.20;0.10;;;;;;;;;;5084742;28;20040;-82
2024/02/08 13:35:21;;;;;;;0.20;0.10;;;;;;;;;;5105866;28;20071;-84
2024/02/08 13:38:00;;;;;;;0.20;0.20;;;;;;;;;;5072953;28;20048;-85
2024/02/08 13:40:26;;;;;;;0.20;0.00;;;;;;;;;;5086034;28;20023;-85
2024/02/08 13:42:58;;;;;;;0.20;0.10;;;;;;;;;;5073136;28;20043;-83
2024/02/08 13:45:28;;;;;;;0.20;0.10;;;;;;;;;;5077940;28;20262;-85
2024/02/08 13:48:05;;;;;;;0.20;0.10;;;;;;;;;;5071708;28;20063;-89
2024/02/08 13:50:47;;;;;;;;;;;;;;;;;;;;;
2024/02/08 13:59:48;;;;;;;0.20;0.10;;;;;;;;;;5189208;22;20103;-87
2024/02/08 14:06:02;;;;;;;0.20;0.10;;;;;;;;;;5056904;28;20064;-87
2024/02/08 14:14:42;;;;;;;0.20;0.10;;;;;;;;;;5065210;22;20053;-83
2024/02/08 14:17:10;;;;;;;0.20;0.10;;;;;;;;;;5025648;28;20059;-83
2024/02/08 14:19:37;;;;;;;0.20;0.05;;;;;;;;;;5044884;28;20044;-84
2024/02/08 14:22:16;;;;;;;0.20;0.10;;;;;;;;;;5029723;28;20037;-84
2024/02/08 14:24:50;;;;;;;0.20;0.10;;;;;;;;;;5011641;28;20049;-84
2024/02/08 14:27:19;;;;;;;0.20;0.10;;;;;;;;;;5014918;28;20073;-85
2024/02/08 14:29:48;;;;;;;0.20;0.10;;;;;;;;;;5013113;28;20136;-84
2024/02/08 14:32:14;;;;;;;0.20;0.10;;;;;;;;;;5014290;28;20140;-84
2024/02/08 14:34:40;;;;;;;0.20;0.10;;;;;;;;;;5011899;28;20510;-85
2024/02/08 14:37:07;;;;;;;0.30;0.30;;;;;;;;;;5028880;28;20124;-84
2024/02/08 14:39:34;;;;;;;0.20;0.10;;;;;;;;;;5011750;28;20033;-85
2024/02/08 14:42:17;;;;;;;0.20;0.00;;;;;;;;;;5027680;28;20042;-84
2024/02/08 14:44:53;;;;;;;0.20;0.10;;;;;;;;;;5025152;28;20128;-85
2024/02/08 14:47:25;;;;;;;0.20;0.00;;;;;;;;;;5028481;28;20053;-83
2024/02/08 14:49:54;;;;;;;0.20;0.10;;;;;;;;;;5030168;28;20076;-84
2024/02/08 14:52:28;;;;;;;0.20;0.10;;;;;;;;;;5027294;28;20050;-83
2024/02/08 14:55:09;;;;;;;0.20;0.00;;;;;;;;;;5030910;28;20107;-83
2024/02/08 14:57:45;;;;;;;0.20;0.10;;;;;;;;;;5022029;28;20046;-84
2024/02/08 15:03:02;;;;;;;0.20;0.10;;;;;;;;;;5022793;28;22574;-83
2024/02/08 15:05:59;;;;;;;;;;;;;;;;;;5011179;28;20047;-83
2024/02/08 15:11:02;;;;;;;0.20;0.10;;;;;;;;;;5044260;28;20064;-82
2024/02/08 15:13:38;;;;;;;0.20;0.03;;;;;;;;;;5007435;28;20155;-82
2024/02/08 15:16:07;;;;;;;0.20;0.08;;;;;;;;;;5015909;28;20033;-81
2024/02/08 15:18:39;;;;;;;0.20;0.10;;;;;;;;;;5031065;28;20270;-82
2024/02/08 15:21:06;;;;;;;0.20;0.10;;;;;;;;;;5021268;28;20036;-83
2024/02/08 15:23:47;;;;;;;0.20;0.10;;;;;;;;;;5017500;28;20473;-83
2024/02/08 15:26:14;;;;;;;0.20;0.10;;;;;;;;;;5015454;28;20037;-85
2024/02/08 15:28:45;;;;;;;0.20;0.10;;;;;;;;;;5030153;28;20049;-83
2024/02/08 15:31:21;;;;;;;0.20;0.10;;;;;;;;;;5035111;28;20042;-85
2024/02/08 15:36:32;;;;;;;0.20;0.10;;;;;;;;;;5026475;28;20128;-85
2024/02/08 15:39:24;;;;;;;0.20;0.10;;;;;;;;;;5010267;28;20120;-84
2024/02/08 15:41:55;;;;;;;0.35;0.32;;;;;;;;;;5042902;28;20081;-85
2024/02/08 15:44:33;;;;;;;0.20;0.10;;;;;;;;;;5010999;28;20033;-84
2024/02/08 15:47:00;;;;;;;0.20;0.00;;;;;;;;;;5016536;28;20041;-86
2024/02/08 15:49:28;;;;;;;0.20;0.10;;;;;;;;;;5029303;28;20044;-85
2024/02/08 15:51:55;;;;;;;0.20;0.10;;;;;;;;;;5011759;28;20033;-85
2024/02/08 15:54:37;;;;;;;0.20;0.10;;;;;;;;;;5011420;28;20124;-84
2024/02/08 15:57:07;;;;;;;0.20;0.10;;;;;;;;;;5023321;28;20445;-86
2024/02/08 15:59:34;;;;;;;0.20;0.10;;;;;;;;;;5011436;28;20034;-84
2024/02/08 16:02:13;;;;;;;0.20;0.10;;;;;;;;;;5014002;28;20041;-86
2024/02/08 16:04:45;;;;;;;0.20;0.10;;;;;;;;;;5008775;28;20123;-85
2024/02/08 16:07:15;;;;;;;0.20;0.10;;;;;;;;;;5013982;28;20037;-86
2024/02/08 16:09:45;;;;;;;0.20;0.10;;;;;;;;;;5010231;28;20514;-86
2024/02/08 16:13:04;;;;;;;0.20;0.10;;;;;;;;;;5003740;28;20041;-84
2024/02/08 16:15:07;;;;;;;0.20;0.00;;;;;;;;;;5017399;28;20041;-84
2024/02/08 16:17:36;;;;;;;0.20;0.08;;;;;;;;;;5007580;28;20064;-86
2024/02/08 16:22:52;;;;;;;0.20;0.10;;;;;;;;;;5024618;28;20046;-86
2024/02/08 16:25:38;;;;;;;0.20;0.00;;;;;;;;;;5027518;28;20457;-83
2024/02/08 16:28:25;;;;;;;0.20;0.10;;;;;;;;;;5043604;28;20102;-86
2024/02/08 16:31:00;;;;;;;0.20;0.10;;;;;;;;;;5013739;28;20048;-88
2024/02/08 16:33:33;;;;;;;0.20;0.10;;;;;;;;;;5010108;28;20469;-86
2024/02/08 16:38:57;;;;;;;0.20;0.10;;;;;;;;;;5022424;28;20045;-86
2024/02/08 16:41:30;;;;;;;0.20;0.10;;;;;;;;;;5010278;28;20044;-86
2024/02/08 16:43:59;;;;;;;0.20;0.10;;;;;;;;;;5005892;28;20527;-86
2024/02/08 16:46:35;;;;;;;0.20;0.10;;;;;;;;;;5008351;28;20091;-86
2024/02/08 16:49:04;;;;;;;0.20;0.10;;;;;;;;;;5018376;28;20038;-85
2024/02/08 16:57:03;;;;;;;0.20;0.00;;;;;;;;;;5018896;28;20049;-87
2024/02/08 16:59:48;;;;;;;0.20;0.10;;;;;;;;;;5014132;28;20072;-90
2024/02/08 17:02:39;;;;;;;0.20;0.10;;;;;;;;;;5004338;28;20045;-87
2024/02/08 17:05:16;;;;;;;0.20;0.10;;;;;;;;;;5009000;28;20042;-86
2024/02/08 17:10:22;;;;;;;0.20;0.10;;;;;;;;;;5029225;28;20045;-83
2024/02/08 17:12:59;;;;;;;0.20;0.10;;;;;;;;;;5015221;28;20049;-83
2024/02/08 17:15:29;;;;;;;0.20;0.10;;;;;;;;;;5012315;28;20393;-83
2024/02/08 17:18:05;;;;;;;0.20;0.10;;;;;;;;;;5006104;28;20049;-81
2024/02/08 17:20:40;;;;;;;0.20;0.10;;;;;;;;;;5028783;28;20145;-83
2024/02/08 17:23:16;;;;;;;0.20;0.10;;;;;;;;;;5010632;28;20171;-81
2024/02/08 17:25:47;;;;;;;0.20;0.10;;;;;;;;;;5023933;28;20045;-81
2024/02/08 17:28:21;;;;;;;0.20;0.10;;;;;;;;;;5010499;28;20100;-82
2024/02/08 17:31:04;;;;;;;0.20;0.00;;;;;;;;;;5013282;28;20067;-85
2024/02/08 17:33:30;;;;;;;0.20;0.20;;;;;;;;;;5011315;28;20464;-83
2024/02/08 17:35:59;;;;;;;0.20;0.20;;;;;;;;;;5014735;28;20037;-82
2024/02/08 17:38:29;;;;;;;0.20;0.10;;;;;;;;;;5029793;28;20383;-81
2024/02/08 17:40:55;;;;;;;0.20;0.10;;;;;;;;;;5002277;28;20078;-84
2024/02/08 17:43:23;;;;;;;0.20;0.10;;;;;;;;;;5011149;28;20113;-82
2024/02/08 17:46:02;;;;;;;0.20;0.10;;;;;;;;;;5001793;28;20120;-84
2024/02/08 17:48:28;;;;;;;0.20;0.10;;;;;;;;;;5014725;28;20373;-79
2024/02/08 17:51:07;;;;;;;0.20;0.10;;;;;;;;;;5010786;28;20038;-86
2024/02/08 17:53:35;;;;;;;0.45;0.40;;;;;;;;;;4996854;28;20034;-81
2024/02/08 17:56:06;;;;;;;0.20;0.10;;;;;;;;;;5042123;28;20753;-85
2024/02/08 17:58:34;;;;;;;0.20;0.10;;;;;;;;;;5012352;28;20677;-85
2024/02/08 18:01:05;;;;;;;0.20;0.10;;;;;;;;;;5033992;28;20043;-85
2024/02/08 18:03:53;;;;;;;0.20;0.10;;;;;;;;;;5033352;28;20046;-84
2024/02/08 18:06:23;;;;;;;0.20;0.10;;;;;;;;;;5008224;28;20594;-83
2024/02/08 18:08:50;;;;;;;0.20;0.10;;;;;;;;;;5016384;28;20056;-83
2024/02/08 18:11:16;;;;;;;0.20;0.10;;;;;;;;;;5014172;28;20509;-86
2024/02/08 18:13:42;;;;;;;0.20;0.10;;;;;;;;;;5031707;28;20537;-83
2024/02/08 18:16:11;;;;;;;0.20;0.10;;;;;;;;;;5030929;28;20497;-82
2024/02/08 18:18:39;;;;;;;0.20;0.10;;;;;;;;;;5028762;28;20041;-82
2024/02/08 18:21:13;;;;;;;0.20;0.10;;;;;;;;;;5030748;28;20451;-85
2024/02/08 18:23:45;;;;;;;0.20;0.10;;;;;;;;;;5006771;28;20422;-83
2024/02/08 18:26:11;;;;;;;0.20;0.10;;;;;;;;;;5033383;28;20148;-83
2024/02/08 18:28:39;;;;;;;0.20;0.10;;;;;;;;;;5032583;28;20103;-83
2024/02/08 18:31:09;;;;;;;0.20;0.10;;;;;;;;;;5015427;28;20577;-81
2024/02/08 18:33:35;;;;;;;0.20;0.10;;;;;;;;;;5018088;28;20048;-82
2024/02/08 18:36:04;;;;;;;0.20;0.10;;;;;;;;;;5011597;28;20034;-81
2024/02/08 18:38:35;;;;;;;0.20;0.10;;;;;;;;;;5033182;28;20052;-83
2024/02/08 18:41:06;;;;;;;0.20;0.10;;;;;;;;;;5024500;28;20041;-82
2024/02/08 18:43:33;;;;;;;0.20;0.00;;;;;;;;;;5017201;28;20103;-82
2024/02/08 18:45:59;;;;;;;0.20;0.10;;;;;;;;;;5030381;28;20051;-85
2024/02/08 18:48:28;;;;;;;0.20;0.10;;;;;;;;;;5011771;28;20081;-81
2024/02/08 18:50:58;;;;;;;0.20;0.10;;;;;;;;;;5027003;28;20049;-81
2024/02/08 18:53:24;;;;;;;0.20;0.10;;;;;;;;;;5030188;28;20041;-82
2024/02/08 18:56:00;;;;;;;0.20;0.10;;;;;;;;;;5028698;28;20505;-84
2024/02/08 18:58:27;;;;;;;0.20;0.10;;;;;;;;;;5011257;28;20037;-83
2024/02/08 19:00:59;;;;;;;0.20;0.10;;;;;;;;;;5022629;28;20476;-81
2024/02/08 19:03:30;;;;;;;0.20;0.10;;;;;;;;;;5026303;28;20049;-82
2024/02/08 19:05:59;;;;;;;0.20;0.10;;;;;;;;;;5013264;28;20051;-82
2024/02/08 19:08:26;;;;;;;0.20;0.10;;;;;;;;;;5022728;28;20042;-83
2024/02/08 19:10:59;;;;;;;0.65;0.63;;;;;;;;;;5029003;28;20049;-83
2024/02/08 19:13:26;;;;;;;0.20;0.00;;;;;;;;;;4998654;28;20033;-83
2024/02/08 19:16:01;;;;;;;0.20;0.10;;;;;;;;;;5025886;28;20065;-84
2024/02/08 19:18:32;;;;;;;0.20;0.10;;;;;;;;;;5017705;28;20045;-84
2024/02/08 19:21:01;;;;;;;0.20;0.10;;;;;;;;;;5022127;28;20045;-83
2024/02/08 19:23:28;;;;;;;0.20;0.10;;;;;;;;;;5012864;28;20163;-83
2024/02/08 19:25:57;;;;;;;0.20;0.10;;;;;;;;;;5000444;28;20041;-81
2024/02/08 19:28:30;;;;;;;0.20;0.05;;;;;;;;;;5027510;28;20025;-84
2024/02/08 19:30:56;;;;;;;0.20;0.10;;;;;;;;;;5002597;28;20045;-83
2024/02/08 19:33:25;;;;;;;0.20;0.10;;;;;;;;;;5004974;28;20045;-81
2024/02/08 19:35:54;;;;;;;0.20;0.10;;;;;;;;;;5018904;28;20052;-82
2024/02/08 19:38:25;;;;;;;0.20;0.10;;;;;;;;;;5023623;28;20037;-83
2024/02/08 19:40:53;;;;;;;0.20;0.10;;;;;;;;;;5023809;28;20532;-84
2024/02/08 19:43:19;;;;;;;0.20;0.10;;;;;;;;;;5008933;28;20065;-84